Time;durP1;ratioP1;P1;durP2;ratioP2;P2;SDS_P1;SDS_P2;PMS_P1;PMS_P2;Temp;Humidity;BMP_temperature;BMP_pressure;BME280_temperature;BME280_humidity;BME280_pressure;Samples;Min_cycle;Max_cycle;Signal;HPM_P1;HPM_P2
2021/12/22 00:02:15;;;;;;;4.10;1.00;;;;;;;-0.05;91.45;102209.66;4825806;29;20042;-79
2021/12/22 00:04:45;;;;;;;1.73;0.85;;;;;;;-0.23;91.67;102177.25;4823407;29;20182;-79
2021/12/22 00:07:11;;;;;;;2.47;1.30;;;;;;;-0.03;91.63;102199.81;4809514;29;20091;-78
2021/12/22 00:09:37;;;;;;;2.95;1.00;;;;;;;0.00;91.74;102204.94;4821763;29;20034;-79
2021/12/22 00:12:02;;;;;;;1.23;0.82;;;;;;;0.04;91.48;102210.88;4808817;29;20525;-79
2021/12/22 00:14:28;;;;;;;1.55;0.90;;;;;;;0.02;91.91;102208.31;4824974;29;20493;-79
2021/12/22 00:16:53;;;;;;;2.03;1.20;;;;;;;-0.14;91.70;102167.88;4825167;29;20034;-79
2021/12/22 00:19:19;;;;;;;1.05;0.88;;;;;;;0.06;91.71;102206.31;4822052;29;20034;-78
2021/12/22 00:21:45;;;;;;;1.85;1.00;;;;;;;0.06;91.98;102211.59;4823004;29;20035;-78
2021/12/22 00:24:10;;;;;;;1.70;0.95;;;;;;;0.09;92.05;102208.78;4822838;29;20034;-79
2021/12/22 00:26:36;;;;;;;2.38;0.95;;;;;;;0.08;91.96;102201.78;4822700;29;20042;-78
2021/12/22 00:29:01;;;;;;;3.17;0.90;;;;;;;0.09;91.80;102206.13;4824376;29;20361;-78
2021/12/22 00:31:27;;;;;;;4.78;0.90;;;;;;;-0.02;92.03;102180.34;4821655;29;20065;-79
2021/12/22 00:33:55;;;;;;;4.05;1.00;;;;;;;0.03;91.87;102196.78;4822915;29;20537;-79
2021/12/22 00:36:22;;;;;;;2.60;1.20;;;;;;;-0.17;92.09;102160.97;4822842;29;20102;-78
2021/12/22 00:38:49;;;;;;;2.28;1.10;;;;;;;0.08;91.87;102202.63;4823165;29;20041;-79
2021/12/22 00:41:16;;;;;;;3.17;1.10;;;;;;;-0.03;91.88;102184.78;4823181;29;20034;-78
2021/12/22 00:43:42;;;;;;;1.48;0.80;;;;;;;0.08;92.29;102199.16;4824295;29;20129;-79
2021/12/22 00:46:08;;;;;;;1.65;1.10;;;;;;;0.12;92.07;102208.59;4822168;29;20522;-79
2021/12/22 00:48:33;;;;;;;1.58;1.02;;;;;;;0.05;92.29;102199.34;4823237;29;20468;-79
2021/12/22 00:51:00;;;;;;;2.28;1.00;;;;;;;0.10;91.92;102203.41;4822590;29;20182;-79
2021/12/22 00:53:26;;;;;;;1.73;1.10;;;;;;;0.10;92.22;102205.16;4823916;29;20030;-79
2021/12/22 00:55:52;;;;;;;3.70;1.20;;;;;;;0.08;92.27;102209.72;4822110;29;20039;-78
2021/12/22 00:58:17;;;;;;;1.90;1.10;;;;;;;0.09;92.41;102204.31;4822858;29;20069;-79
2021/12/22 01:00:46;;;;;;;1.52;1.00;;;;;;;0.03;92.40;102203.84;4822651;29;20366;-79
2021/12/22 01:03:13;;;;;;;2.13;1.10;;;;;;;-0.24;92.27;102157.88;4823222;29;20027;-79
2021/12/22 01:05:38;;;;;;;1.80;0.90;;;;;;;0.09;92.55;102206.13;4821571;29;20038;-79
2021/12/22 01:08:04;;;;;;;1.50;1.10;;;;;;;0.09;92.70;102206.13;4823159;29;20326;-79
2021/12/22 01:10:30;;;;;;;2.08;0.93;;;;;;;0.04;92.39;102203.78;4824181;29;20060;-79
2021/12/22 01:12:58;;;;;;;2.72;1.17;;;;;;;0.11;92.64;102214.84;4808597;29;20045;-79
2021/12/22 01:15:25;;;;;;;1.13;0.88;;;;;;;-0.02;92.71;102194.41;4822731;29;20042;-79
2021/12/22 01:17:59;;;;;;;1.63;1.10;;;;;;;-0.03;93.06;102184.78;4823593;29;20030;-79
2021/12/22 01:20:32;;;;;;;1.50;1.03;;;;;;;0.10;92.54;102202.53;4820242;29;20550;-79
2021/12/22 01:23:05;;;;;;;2.17;1.08;;;;;;;0.08;92.71;102188.56;4823959;29;20045;-79
2021/12/22 01:25:35;;;;;;;2.72;1.10;;;;;;;0.11;92.90;102194.50;4820962;29;20087;-79
2021/12/22 01:28:00;;;;;;;2.55;1.20;;;;;;;-0.05;93.42;102178.75;4824354;29;20038;-79
2021/12/22 01:30:29;;;;;;;3.22;1.20;;;;;;;-0.15;93.14;102153.81;4805561;29;20157;-79
2021/12/22 01:32:56;;;;;;;2.47;1.27;;;;;;;-0.01;93.36;102171.44;4822332;29;20034;-79
2021/12/22 01:35:26;;;;;;;2.35;1.45;;;;;;;0.10;93.39;102191.94;4822318;29;20034;-78
2021/12/22 01:37:52;;;;;;;2.47;1.50;;;;;;;-0.02;93.34;102159.19;4823799;29;20139;-79
2021/12/22 01:40:19;;;;;;;3.45;1.48;;;;;;;0.11;93.58;102180.44;4795971;29;20484;-79
2021/12/22 01:42:46;;;;;;;2.80;1.52;;;;;;;-0.08;93.43;102155.13;4826402;29;20038;-79
2021/12/22 01:45:29;;;;;;;4.40;1.50;;;;;;;-0.10;93.17;102146.44;4824693;29;20062;-79
2021/12/22 01:50:50;;;;;;;2.22;1.50;;;;;;;0.05;93.76;102171.06;4825128;29;20058;-79
2021/12/22 01:53:44;;;;;;;3.38;1.80;;;;;;;0.05;93.82;102162.28;4823006;29;20347;-79
2021/12/22 01:58:46;;;;;;;5.93;1.52;;;;;;;0.12;94.58;102182.13;4825216;29;20046;-79
2021/12/22 02:01:12;;;;;;;3.08;1.90;;;;;;;0.15;94.13;102179.28;4827040;29;20080;-79
2021/12/22 02:03:39;;;;;;;2.70;1.65;;;;;;;0.03;94.48;102166.81;4824423;29;20041;-79
2021/12/22 02:06:05;;;;;;;3.42;1.85;;;;;;;0.06;94.33;102166.63;4826978;29;20030;-79
2021/12/22 02:08:32;;;;;;;3.40;1.80;;;;;;;0.03;94.89;102187.97;4823924;29;20035;-79
2021/12/22 02:10:58;;;;;;;5.05;1.92;;;;;;;0.01;94.83;102169.56;4817930;29;20473;-79
2021/12/22 02:13:29;;;;;;;3.05;1.92;;;;;;;0.20;94.54;102195.72;4825939;29;20083;-79
2021/12/22 02:15:55;;;;;;;2.90;2.00;;;;;;;0.09;94.67;102169.91;4810472;29;20034;-79
2021/12/22 02:18:21;;;;;;;2.22;1.80;;;;;;;0.12;94.52;102160.94;4826426;29;20042;-78
2021/12/22 02:20:49;;;;;;;2.58;1.70;;;;;;;0.15;95.00;102177.47;4823869;29;20594;-79
2021/12/22 02:23:16;;;;;;;4.85;1.90;;;;;;;0.23;94.93;102187.56;4825097;29;20030;-79
2021/12/22 02:25:50;;;;;;;3.17;2.05;;;;;;;0.17;95.21;102178.25;4822340;29;20466;-79
2021/12/22 02:28:21;;;;;;;4.20;2.00;;;;;;;0.19;94.65;102178.13;4811350;29;20458;-79
2021/12/22 02:30:47;;;;;;;4.93;2.17;;;;;;;0.18;94.96;102174.63;4823717;29;20049;-78
2021/12/22 02:33:34;;;;;;;3.63;1.70;;;;;;;0.12;95.56;102166.22;4826237;29;20480;-79
2021/12/22 02:38:28;;;;;;;2.88;1.60;;;;;;;-0.11;95.13;102117.41;4826198;29;20046;-79
2021/12/22 02:40:54;;;;;;;4.05;1.50;;;;;;;0.08;95.78;102175.31;4823631;29;20030;-79
2021/12/22 02:43:22;;;;;;;2.63;1.80;;;;;;;0.10;95.68;102163.69;4825410;29;20034;-79
2021/12/22 02:45:49;;;;;;;4.07;2.03;;;;;;;0.12;95.43;102167.09;4809694;29;20035;-79
2021/12/22 02:48:15;;;;;;;3.50;1.90;;;;;;;0.02;95.84;102144.81;4841311;29;20109;-79
2021/12/22 02:50:41;;;;;;;3.03;1.77;;;;;;;0.03;95.65;102145.63;4823753;29;20170;-79
2021/12/22 02:53:11;;;;;;;3.10;1.95;;;;;;;0.20;95.50;102163.97;4822728;29;20058;-78
2021/12/22 02:58:21;;;;;;;5.38;2.10;;;;;;;0.08;95.61;102138.28;4816479;29;20100;-79
2021/12/22 03:03:28;;;;;;;3.35;1.88;;;;;;;0.16;95.85;102158.00;4816583;29;20346;-79
2021/12/22 03:05:54;;;;;;;2.70;1.83;;;;;;;0.22;95.27;102156.75;4824716;29;20043;-78
2021/12/22 03:08:19;;;;;;;3.92;2.15;;;;;;;0.20;95.27;102154.22;4816346;29;20469;-79
2021/12/22 03:10:44;;;;;;;3.53;2.20;;;;;;;0.07;95.63;102137.44;4807353;29;20038;-79
2021/12/22 03:13:10;;;;;;;3.17;1.98;;;;;;;0.13;95.75;102138.81;4806586;29;20035;-78
2021/12/22 03:15:35;;;;;;;3.95;2.30;;;;;;;0.06;96.04;102140.16;4816075;29;20049;-79
2021/12/22 03:18:03;;;;;;;3.22;2.10;;;;;;;0.01;96.01;102134.31;4824766;29;20053;-79
2021/12/22 03:20:29;;;;;;;2.10;1.58;;;;;;;0.04;96.51;102148.22;4821175;29;20034;-79
2021/12/22 03:22:55;;;;;;;3.33;2.05;;;;;;;0.09;96.45;102140.81;4825058;29;20110;-79
2021/12/22 03:25:25;;;;;;;3.13;2.20;;;;;;;0.02;96.99;102143.94;4822236;29;20109;-79
2021/12/22 03:27:52;;;;;;;3.63;2.13;;;;;;;0.08;96.35;102148.84;4825120;29;20133;-78
2021/12/22 03:30:21;;;;;;;3.90;2.13;;;;;;;0.12;96.55;102148.56;4824287;29;20034;-79
2021/12/22 03:32:47;;;;;;;2.50;2.15;;;;;;;0.08;96.31;102138.28;4839601;29;20034;-78
2021/12/22 03:35:17;;;;;;;4.07;2.15;;;;;;;0.19;96.09;102152.50;4822790;29;20044;-79
2021/12/22 03:37:45;;;;;;;5.55;2.03;;;;;;;0.08;96.67;102143.56;4825620;29;20458;-79
2021/12/22 03:40:10;;;;;;;3.00;2.25;;;;;;;0.14;96.55;102140.53;4823357;29;20045;-79
2021/12/22 03:42:36;;;;;;;4.20;1.98;;;;;;;0.13;96.49;102131.75;4809385;29;20370;-79
2021/12/22 03:45:03;;;;;;;4.72;2.13;;;;;;;0.14;96.63;102138.72;4822130;29;20038;-79
2021/12/22 03:47:29;;;;;;;2.47;1.90;;;;;;;-0.06;96.93;102116.19;4825705;29;20034;-79
2021/12/22 03:49:54;;;;;;;2.75;1.75;;;;;;;0.00;96.85;102136.13;4823685;29;20090;-79
2021/12/22 03:52:20;;;;;;;2.78;2.10;;;;;;;-0.19;96.93;102098.56;4809126;29;20045;-79
2021/12/22 03:54:45;;;;;;;2.95;1.92;;;;;;;-0.21;96.85;102082.75;4822609;29;20038;-79
2021/12/22 03:57:10;;;;;;;3.10;1.83;;;;;;;0.10;96.80;102125.78;4824412;29;20686;-79
2021/12/22 03:59:36;;;;;;;3.42;1.77;;;;;;;0.14;96.52;102124.66;4807638;29;20038;-79
2021/12/22 04:02:02;;;;;;;3.33;2.00;;;;;;;0.12;96.84;102126.53;4822642;29;20045;-78
2021/12/22 04:04:27;;;;;;;3.47;2.10;;;;;;;0.03;96.62;102106.78;4822852;29;20125;-79
2021/12/22 04:06:53;;;;;;;3.75;2.15;;;;;;;0.10;96.59;102120.47;4823561;29;20041;-78
2021/12/22 04:09:26;;;;;;;2.83;1.92;;;;;;;-0.02;96.64;102098.31;4808937;29;20045;-78
2021/12/22 04:11:51;;;;;;;3.70;2.38;;;;;;;0.19;96.39;102133.13;4824071;29;20470;-78
2021/12/22 04:14:17;;;;;;;4.82;2.38;;;;;;;0.11;96.91;102130.13;4823400;29;20038;-79
2021/12/22 04:16:42;;;;;;;3.25;1.90;;;;;;;-0.07;97.26;102101.25;4808356;29;20465;-78
2021/12/22 04:19:07;;;;;;;2.70;1.92;;;;;;;-0.04;96.80;102097.56;4822407;29;20050;-79
2021/12/22 04:21:33;;;;;;;3.42;1.90;;;;;;;0.10;96.88;102117.84;4822346;29;20042;-78
2021/12/22 04:23:59;;;;;;;5.47;2.22;;;;;;;0.18;96.63;102129.63;4824251;29;20038;-78
2021/12/22 04:26:27;;;;;;;3.45;2.00;;;;;;;-0.08;96.74;102083.69;4806604;29;20115;-78
2021/12/22 04:28:52;;;;;;;6.90;2.17;;;;;;;0.17;96.93;102121.81;4824184;29;20040;-79
2021/12/22 04:31:18;;;;;;;3.80;1.90;;;;;;;0.11;96.83;102106.31;4822462;29;20034;-79
2021/12/22 04:33:43;;;;;;;4.28;2.00;;;;;;;0.15;96.83;102124.53;4793265;29;20030;-79
2021/12/22 04:36:08;;;;;;;3.45;2.15;;;;;;;0.18;96.62;102128.78;4821678;29;20053;-79
2021/12/22 04:38:34;;;;;;;3.90;2.10;;;;;;;0.13;96.67;102115.00;4822904;29;20121;-79
2021/12/22 04:40:59;;;;;;;5.95;2.08;;;;;;;-0.34;96.70;102037.72;4822911;29;20034;-79
2021/12/22 04:43:25;;;;;;;5.05;2.08;;;;;;;0.10;96.79;102116.06;4824597;29;20031;-79
2021/12/22 04:45:50;;;;;;;10.75;2.28;;;;;;;-0.11;96.65;102067.16;4822193;29;20034;-79
2021/12/22 04:48:16;;;;;;;4.35;1.88;;;;;;;-0.16;96.96;102063.97;4824182;29;20034;-79
2021/12/22 04:50:41;;;;;;;4.65;1.80;;;;;;;0.14;96.92;102106.13;4807815;29;20465;-79
2021/12/22 04:53:15;;;;;;;4.22;2.08;;;;;;;0.18;96.83;102119.06;4807953;29;20045;-79
2021/12/22 04:55:40;;;;;;;5.05;2.33;;;;;;;0.13;96.70;102112.34;4822343;29;20469;-79
2021/12/22 04:58:06;;;;;;;4.30;2.33;;;;;;;0.05;96.78;102093.47;4823664;29;20058;-79
2021/12/22 05:00:35;;;;;;;4.25;2.20;;;;;;;0.07;96.77;102103.03;4822443;29;20030;-79
2021/12/22 05:03:02;;;;;;;5.53;2.20;;;;;;;0.10;97.66;102110.78;4824196;29;20477;-79
2021/12/22 05:05:28;;;;;;;4.65;2.40;;;;;;;0.10;97.17;102115.19;4822857;29;20098;-79
2021/12/22 05:07:54;;;;;;;3.80;2.60;;;;;;;0.04;97.69;102116.44;4822743;29;20035;-79
2021/12/22 05:10:24;;;;;;;5.13;2.67;;;;;;;-0.15;97.44;102079.72;4822250;29;20351;-78
2021/12/22 05:12:49;;;;;;;4.55;2.72;;;;;;;-0.28;97.34;102060.31;4823205;29;20022;-78
2021/12/22 05:15:20;;;;;;;6.40;3.13;;;;;;;-0.17;97.42;102086.06;4825429;29;20040;-79
2021/12/22 05:20:14;;;;;;;5.30;2.63;;;;;;;-0.11;97.83;102090.97;4825719;29;20018;-79
2021/12/22 05:22:40;;;;;;;6.80;2.95;;;;;;;-0.08;97.96;102096.06;4827761;29;20056;-79
2021/12/22 05:25:07;;;;;;;6.60;2.80;;;;;;;-0.22;98.05;102077.59;4825095;29;20030;-79
2021/12/22 05:27:33;;;;;;;6.28;2.65;;;;;;;-0.36;97.96;102054.66;4812481;29;20424;-79
2021/12/22 05:29:59;;;;;;;6.65;2.72;;;;;;;-0.17;98.04;102080.78;4826035;29;20110;-79
2021/12/22 05:32:30;;;;;;;6.65;3.20;;;;;;;-0.05;98.22;102107.28;4826362;29;20030;-78
2021/12/22 05:35:00;;;;;;;7.85;3.30;;;;;;;-0.06;98.41;102099.47;4824711;29;20411;-79
2021/12/22 05:37:26;;;;;;;8.55;2.80;;;;;;;-0.06;98.62;102100.31;4826376;29;20034;-78
2021/12/22 05:39:51;;;;;;;4.50;3.10;;;;;;;-0.18;98.21;102076.44;4825239;29;20035;-79
2021/12/22 05:42:18;;;;;;;5.82;3.22;;;;;;;-0.10;98.56;102093.53;4827789;29;20454;-79
2021/12/22 05:44:44;;;;;;;7.57;3.60;;;;;;;-0.21;98.77;102074.00;4827013;29;20516;-78
2021/12/22 05:47:09;;;;;;;3.97;2.83;;;;;;;-0.16;98.55;102088.63;4827187;29;20110;-79
2021/12/22 05:49:35;;;;;;;5.75;3.30;;;;;;;-0.08;98.61;102096.91;4825857;29;20513;-79
2021/12/22 05:52:01;;;;;;;6.85;2.95;;;;;;;-0.54;99.03;102027.56;4826866;29;20109;-79
2021/12/22 05:54:26;;;;;;;6.10;3.08;;;;;;;-0.10;98.75;102096.19;4822248;29;20175;-79
2021/12/22 05:56:51;;;;;;;6.57;3.47;;;;;;;-0.11;98.47;102102.38;4810815;29;20476;-79
2021/12/22 05:59:17;;;;;;;6.63;3.30;;;;;;;-0.12;98.80;102094.56;4808804;29;20077;-79
2021/12/22 06:01:42;;;;;;;5.85;2.95;;;;;;;-0.24;98.86;102082.97;4824702;29;20041;-79
2021/12/22 06:04:08;;;;;;;6.97;4.30;;;;;;;-0.25;98.66;102083.91;4825682;29;20061;-78
2021/12/22 06:06:34;;;;;;;9.43;5.38;;;;;;;-0.12;98.95;102106.00;4826743;29;20033;-79
2021/12/22 06:08:59;;;;;;;7.00;4.20;;;;;;;-0.11;98.59;102102.38;4826407;29;20461;-79
2021/12/22 06:11:24;;;;;;;8.43;3.55;;;;;;;-0.10;99.14;102101.47;4825196;29;20042;-79
2021/12/22 06:13:50;;;;;;;6.93;3.75;;;;;;;-0.13;99.39;102100.78;4821788;29;20037;-79
2021/12/22 06:16:15;;;;;;;9.85;3.70;;;;;;;-0.25;99.25;102079.47;4808862;29;20041;-79
2021/12/22 06:18:44;;;;;;;5.88;3.47;;;;;;;-0.11;99.21;102105.03;4825535;29;20109;-79
2021/12/22 06:21:11;;;;;;;8.18;3.97;;;;;;;-0.16;98.99;102095.72;4822759;29;20046;-79
2021/12/22 06:23:37;;;;;;;5.85;3.35;;;;;;;-0.21;98.96;102084.56;4825003;29;20058;-79
2021/12/22 06:26:03;;;;;;;8.57;3.63;;;;;;;-0.10;98.98;102097.94;4822443;29;20054;-79
2021/12/22 06:28:29;;;;;;;9.15;3.40;;;;;;;-0.22;99.32;102075.78;4824446;29;20618;-79
2021/12/22 06:30:54;;;;;;;9.45;3.50;;;;;;;-0.34;99.40;102058.03;4825699;29;20026;-79
2021/12/22 06:33:20;;;;;;;11.40;4.13;;;;;;;-0.15;99.38;102100.91;4826224;29;20373;-79
2021/12/22 06:35:49;;;;;;;7.07;4.03;;;;;;;-0.15;99.54;102092.97;4826575;29;20050;-78
2021/12/22 06:38:15;;;;;;;6.90;3.80;;;;;;;-0.17;99.48;102097.47;4823516;29;20030;-78
2021/12/22 06:40:42;;;;;;;8.98;4.05;;;;;;;-0.14;99.30;102094.66;4809915;29;20046;-78
2021/12/22 06:43:07;;;;;;;6.35;3.85;;;;;;;-0.28;99.72;102081.47;4824349;29;20764;-78
2021/12/22 06:45:33;;;;;;;5.35;3.95;;;;;;;-0.12;99.64;102094.56;4826882;29;20083;-78
2021/12/22 06:47:58;;;;;;;6.82;3.78;;;;;;;-0.43;99.41;102048.03;4825132;29;20069;-78
2021/12/22 06:50:24;;;;;;;7.10;3.78;;;;;;;-0.12;99.60;102095.41;4825779;29;20061;-78
2021/12/22 06:52:50;;;;;;;7.03;3.67;;;;;;;-0.20;99.75;102091.53;4814402;29;20139;-78
2021/12/22 06:55:15;;;;;;;8.13;3.33;;;;;;;-0.45;99.53;102037.56;4831894;29;20030;-79
2021/12/22 06:57:41;;;;;;;10.68;4.43;;;;;;;-0.13;99.55;102095.50;4823556;29;20058;-78
2021/12/22 07:00:09;;;;;;;7.20;3.65;;;;;;;-0.11;99.65;102106.84;4823686;29;20527;-80
2021/12/22 07:02:37;;;;;;;5.45;3.83;;;;;;;-0.30;99.20;102071.00;4809563;29;20054;-79
2021/12/22 07:05:09;;;;;;;7.35;4.20;;;;;;;-0.09;99.49;102104.97;4817545;29;20030;-79
2021/12/22 07:07:36;;;;;;;6.07;3.97;;;;;;;-0.20;99.42;102086.25;4798926;29;20427;-78
2021/12/22 07:10:07;;;;;;;6.72;3.78;;;;;;;-0.13;99.45;102099.00;4810605;29;20446;-78
2021/12/22 07:12:39;;;;;;;8.55;4.15;;;;;;;-0.08;99.43;102101.34;4798219;29;20044;-79
2021/12/22 07:15:05;;;;;;;8.27;4.05;;;;;;;-0.07;99.47;102100.41;4824176;29;20027;-81
2021/12/22 07:17:31;;;;;;;6.30;4.00;;;;;;;-0.24;99.24;102075.03;4808149;29;20050;-78
2021/12/22 07:19:56;;;;;;;8.38;4.68;;;;;;;-0.05;99.27;102112.59;4820202;29;20039;-79
2021/12/22 07:22:22;;;;;;;6.13;4.35;;;;;;;-0.07;99.53;102114.47;4792207;29;20092;-79
2021/12/22 07:24:47;;;;;;;7.90;4.22;;;;;;;-0.07;99.56;102114.47;4806246;29;20104;-81
2021/12/22 07:27:13;;;;;;;6.97;4.20;;;;;;;-0.03;99.44;102113.34;4818996;29;20133;-81
2021/12/22 07:29:41;;;;;;;7.30;4.03;;;;;;;-0.04;99.62;102118.72;4809909;29;20479;-79
2021/12/22 07:32:07;;;;;;;8.95;3.97;;;;;;;-0.02;99.13;102115.03;4803378;29;20099;-79
2021/12/22 07:34:47;;;;;;;8.02;3.63;;;;;;;-0.05;99.39;102117.03;4824201;29;20052;-78
2021/12/22 07:37:36;;;;;;;7.38;4.22;;;;;;;-0.16;99.76;102099.22;4825294;29;20369;-78
2021/12/22 07:40:01;;;;;;;5.22;4.18;;;;;;;-0.05;99.90;102120.53;4818222;29;20144;-77
2021/12/22 07:42:27;;;;;;;6.25;3.88;;;;;;;-0.07;99.23;102118.91;4808942;29;20355;-77
2021/12/22 07:44:52;;;;;;;8.32;3.97;;;;;;;-0.07;99.38;102122.41;4807347;29;20049;-78
2021/12/22 07:47:18;;;;;;;6.95;3.85;;;;;;;-0.05;99.22;102120.53;4822263;29;20095;-77
2021/12/22 07:49:43;;;;;;;5.93;3.50;;;;;;;-0.06;99.43;102124.13;4825430;29;20034;-77
2021/12/22 07:52:08;;;;;;;7.07;3.60;;;;;;;-0.09;99.15;102121.69;4808153;29;20431;-79
2021/12/22 07:54:34;;;;;;;5.07;3.42;;;;;;;-0.12;99.25;102126.31;4824390;29;20042;-78
2021/12/22 07:56:59;;;;;;;6.88;4.03;;;;;;;-0.13;99.31;102114.00;4821501;29;20034;-78
2021/12/22 07:59:25;;;;;;;8.15;4.20;;;;;;;-0.13;99.17;102119.31;4809283;29;20042;-78
2021/12/22 08:01:51;;;;;;;6.82;4.53;;;;;;;-0.12;99.12;102121.88;4808722;29;20054;-79
2021/12/22 08:04:16;;;;;;;5.60;4.15;;;;;;;-0.12;99.17;102116.56;4823997;29;20378;-79
2021/12/22 08:06:41;;;;;;;6.47;4.28;;;;;;;-0.18;99.51;102101.09;4825735;29;20042;-79
2021/12/22 08:09:08;;;;;;;5.88;4.40;;;;;;;-0.38;99.41;102067.97;4823949;29;20109;-79
2021/12/22 08:11:33;;;;;;;6.55;4.70;;;;;;;-0.13;99.44;102116.66;4824226;29;20027;-79
2021/12/22 08:13:59;;;;;;;7.43;4.53;;;;;;;-0.28;99.34;102100.81;4822647;29;20115;-79
2021/12/22 08:16:24;;;;;;;6.60;4.95;;;;;;;-0.27;99.49;102102.50;4824680;29;20117;-78
2021/12/22 08:18:49;;;;;;;7.20;4.78;;;;;;;-0.15;99.79;102124.72;4821915;29;20373;-79
2021/12/22 08:21:15;;;;;;;10.10;5.13;;;;;;;-0.29;99.55;102103.56;4823923;29;20045;-79
2021/12/22 08:23:40;;;;;;;8.40;5.80;;;;;;;-0.14;99.79;102126.41;4821952;29;20042;-78
2021/12/22 08:26:06;;;;;;;7.97;5.38;;;;;;;-0.20;99.93;102116.19;4819242;29;20034;-79
2021/12/22 08:28:31;;;;;;;7.95;5.32;;;;;;;-0.25;99.86;102110.38;4820875;29;20092;-79
2021/12/22 08:30:57;;;;;;;7.72;4.68;;;;;;;-0.26;100.00;102112.16;4822719;29;20522;-79
2021/12/22 08:33:26;;;;;;;10.20;5.30;;;;;;;-0.20;100.00;102126.78;4822033;29;20082;-80
2021/12/22 08:38:56;;;;;;;7.80;5.15;;;;;;;-0.22;100.00;102128.69;4821205;29;20034;-79
2021/12/22 08:41:29;;;;;;;8.90;5.13;;;;;;;-0.22;100.00;102128.69;4816222;29;20086;-79
2021/12/22 08:43:57;;;;;;;8.38;5.47;;;;;;;-0.30;100.00;102115.97;4814792;29;20019;-79
2021/12/22 08:46:23;;;;;;;8.43;5.25;;;;;;;-0.19;100.00;102136.44;4812833;29;20041;-79
2021/12/22 08:48:49;;;;;;;6.95;5.00;;;;;;;-0.18;100.00;102138.13;4823168;29;20030;-79
2021/12/22 08:51:15;;;;;;;8.55;5.68;;;;;;;-0.16;100.00;102136.25;4822653;29;20060;-79
2021/12/22 08:53:41;;;;;;;6.88;5.05;;;;;;;-0.17;100.00;102138.97;4823001;29;20106;-81
2021/12/22 08:56:07;;;;;;;7.90;5.78;;;;;;;-0.18;100.00;102138.13;4820583;29;20373;-79
2021/12/22 08:58:34;;;;;;;7.72;5.63;;;;;;;-0.26;100.00;102121.91;4808486;29;20059;-79
2021/12/22 09:01:00;;;;;;;10.27;5.30;;;;;;;-0.15;100.00;102137.94;4806098;29;20049;-78
2021/12/22 09:03:26;;;;;;;8.27;5.68;;;;;;;-0.39;100.00;102092.72;4823124;29;20023;-80
2021/12/22 09:05:51;;;;;;;7.00;5.68;;;;;;;-0.16;100.00;102120.38;4824322;29;20049;-79
2021/12/22 09:08:17;;;;;;;10.80;5.75;;;;;;;-0.37;100.00;102092.63;4822332;29;20339;-79
2021/12/22 09:10:42;;;;;;;8.75;5.72;;;;;;;-0.15;100.00;102129.16;4824954;29;20480;-78
2021/12/22 09:13:07;;;;;;;10.73;5.80;;;;;;;-0.16;100.00;102125.66;4822817;29;20073;-80
2021/12/22 09:15:35;;;;;;;10.70;5.72;;;;;;;-0.14;100.00;102118.47;4826337;29;20034;-79
2021/12/22 09:18:00;;;;;;;9.25;6.53;;;;;;;-0.11;100.00;102128.84;4821066;29;20113;-80
2021/12/22 09:20:28;;;;;;;9.52;6.18;;;;;;;-0.13;100.00;102125.47;4824754;29;20077;-80
2021/12/22 09:22:53;;;;;;;9.23;5.20;;;;;;;-0.48;100.00;102066.84;4810806;29;20071;-83
2021/12/22 09:25:19;;;;;;;7.20;4.50;;;;;;;-0.11;100.00;102131.50;4826568;29;20471;-80
2021/12/22 09:27:44;;;;;;;10.52;5.00;;;;;;;-0.11;100.00;102123.56;4822287;29;20058;-79
2021/12/22 09:30:10;;;;;;;7.47;4.82;;;;;;;-0.32;100.00;102093.19;4808062;29;20466;-79
2021/12/22 09:32:36;;;;;;;7.65;5.55;;;;;;;-0.15;100.00;102116.78;4821255;29;20127;-79
2021/12/22 09:35:01;;;;;;;9.18;5.32;;;;;;;-0.08;100.00;102126.00;4819794;29;20065;-79
2021/12/22 09:37:26;;;;;;;7.60;5.22;;;;;;;-0.10;100.00;102130.56;4819490;29;20030;-79
2021/12/22 09:39:52;;;;;;;9.68;5.63;;;;;;;-0.07;100.00;102124.22;4819310;29;20046;-79
2021/12/22 09:42:17;;;;;;;8.45;5.47;;;;;;;-0.05;100.00;102127.63;4821376;29;20049;-78
2021/12/22 09:44:45;;;;;;;10.32;6.10;;;;;;;-0.05;100.00;102120.53;4822498;29;20458;-79
2021/12/22 09:47:12;;;;;;;8.10;5.68;;;;;;;-0.32;100.00;102074.69;4819475;29;20057;-79
2021/12/22 09:52:18;;;;;;;9.30;5.68;;;;;;;-0.06;100.00;102108.25;4818189;29;20038;-79
2021/12/22 09:54:51;;;;;;;9.13;6.13;;;;;;;-0.03;100.00;102105.41;4821959;29;20034;-79
2021/12/22 09:57:18;;;;;;;10.43;5.85;;;;;;;-0.02;100.00;102111.56;4819609;29;20394;-79
2021/12/22 09:59:46;;;;;;;10.77;6.15;;;;;;;0.02;100.00;102114.84;4824855;29;20052;-80
2021/12/22 10:02:13;;;;;;;10.80;5.95;;;;;;;-0.12;100.00;102094.56;4827801;29;20437;-79
2021/12/22 10:04:38;;;;;;;7.60;5.70;;;;;;;0.02;100.00;102120.13;4824326;29;20106;-79
2021/12/22 10:07:04;;;;;;;11.68;6.20;;;;;;;0.07;100.00;102118.91;4823776;29;20046;-80
2021/12/22 10:09:31;;;;;;;9.32;5.70;;;;;;;0.07;100.00;102115.41;4822873;29;20072;-79
2021/12/22 10:11:57;;;;;;;9.05;6.03;;;;;;;0.03;100.00;102114.72;4823272;29;20032;-78
2021/12/22 10:14:25;;;;;;;9.35;5.90;;;;;;;0.14;100.00;102122.84;4817881;29;20137;-79
2021/12/22 10:16:53;;;;;;;11.40;6.80;;;;;;;0.10;100.00;102105.47;4819669;29;20034;-78
2021/12/22 10:19:19;;;;;;;13.18;8.13;;;;;;;0.20;100.00;102117.16;4822847;29;20663;-78
2021/12/22 10:22:00;;;;;;;10.45;6.45;;;;;;;0.09;100.00;102095.81;4818314;29;20083;-79
2021/12/22 10:24:34;;;;;;;10.68;7.05;;;;;;;0.27;100.00;102117.63;4821415;29;20039;-77
2021/12/22 10:27:07;;;;;;;11.30;6.70;;;;;;;0.30;100.00;102120.06;4824520;29;20046;-78
2021/12/22 10:29:34;;;;;;;12.68;7.90;;;;;;;0.20;100.00;102093.34;4817998;29;20026;-79
2021/12/22 10:32:14;;;;;;;8.48;5.97;;;;;;;0.12;100.00;102085.03;4819328;29;20034;-78
2021/12/22 10:35:05;;;;;;;10.55;6.45;;;;;;;0.36;100.00;102114.34;4819047;29;20090;-79
2021/12/22 10:37:31;;;;;;;7.03;6.03;;;;;;;0.24;100.00;102080.75;4818835;29;20114;-78
2021/12/22 10:39:58;;;;;;;8.75;6.15;;;;;;;0.07;100.00;102051.91;4821557;29;20030;-78
2021/12/22 10:42:40;;;;;;;11.45;7.00;;;;;;;0.40;100.00;102118.50;4823866;29;20640;-78
2021/12/22 10:45:14;;;;;;;11.10;6.22;;;;;;;0.40;99.91;102113.22;4818358;29;20244;-79
2021/12/22 10:50:53;;;;;;;10.20;5.57;;;;;;;0.40;99.92;102107.06;4819950;29;20169;-80
2021/12/22 10:53:18;;;;;;;9.35;5.80;;;;;;;0.47;99.81;102111.84;4823186;29;20042;-80
2021/12/22 10:55:47;;;;;;;8.27;5.60;;;;;;;0.34;100.00;102088.94;4820029;29;20596;-78
2021/12/22 10:58:25;;;;;;;14.82;5.55;;;;;;;0.49;99.77;102113.53;4817545;29;20074;-78
2021/12/22 11:01:13;;;;;;;12.18;5.68;;;;;;;0.57;99.88;102113.91;4822116;29;20034;-78
2021/12/22 11:03:41;;;;;;;11.32;5.20;;;;;;;0.55;100.00;102115.78;4818784;29;20113;-77
2021/12/22 11:06:15;;;;;;;10.75;6.15;;;;;;;0.39;100.00;102095.59;4819967;29;20038;-77
2021/12/22 11:08:40;;;;;;;10.60;5.60;;;;;;;0.58;99.67;102115.59;4819994;29;20027;-78
2021/12/22 11:11:14;;;;;;;11.98;5.63;;;;;;;0.55;99.87;102116.63;4818584;29;20057;-77
2021/12/22 11:13:39;;;;;;;8.77;5.85;;;;;;;0.55;99.90;102107.84;4822074;29;20038;-76
2021/12/22 11:16:11;;;;;;;11.43;5.68;;;;;;;0.58;99.72;102105.00;4820290;29;20488;-77
2021/12/22 11:18:36;;;;;;;17.80;6.00;;;;;;;0.60;100.00;102113.69;4821106;29;20916;-78
2021/12/22 11:21:06;;;;;;;8.98;5.90;;;;;;;0.45;99.83;102095.19;4821199;29;20026;-77
2021/12/22 11:23:31;;;;;;;9.77;6.38;;;;;;;0.60;99.74;102111.03;4822531;29;20027;-76
2021/12/22 11:25:57;;;;;;;10.52;5.90;;;;;;;0.61;99.92;102110.09;4825314;29;20510;-77
2021/12/22 11:28:24;;;;;;;10.93;5.53;;;;;;;0.60;99.81;102109.25;4806492;29;20030;-78
2021/12/22 11:30:50;;;;;;;11.20;7.18;;;;;;;0.16;99.95;102030.09;4795268;29;20438;-78
2021/12/22 11:33:15;;;;;;;14.35;9.52;;;;;;;0.54;99.82;102103.50;4823140;29;20046;-77
2021/12/22 11:35:42;;;;;;;12.50;9.40;;;;;;;0.52;100.00;102098.28;4806658;29;20042;-78
2021/12/22 11:38:07;;;;;;;13.35;8.60;;;;;;;0.50;100.00;102099.34;4825083;29;20507;-78
2021/12/22 11:40:33;;;;;;;13.00;8.60;;;;;;;0.45;99.90;102087.25;4822784;29;20105;-79
2021/12/22 11:42:58;;;;;;;9.98;6.25;;;;;;;0.53;99.81;102101.78;4819606;29;20037;-79
2021/12/22 11:45:26;;;;;;;8.80;5.70;;;;;;;0.36;100.00;102071.13;4820963;29;20045;-78
2021/12/22 11:47:56;;;;;;;18.60;11.60;;;;;;;0.42;99.95;102076.88;4822152;29;20114;-79
2021/12/22 11:50:25;;;;;;;10.13;6.63;;;;;;;0.44;99.76;102082.94;4825903;29;20053;-79
2021/12/22 11:53:00;;;;;;;9.77;6.40;;;;;;;0.55;99.83;102097.25;4823551;29;20038;-78